Time;durP1;ratioP1;P1;durP2;ratioP2;P2;SDS_P1;SDS_P2;PMS_P1;PMS_P2;Temp;Humidity;BMP_temperature;BMP_pressure;BME280_temperature;BME280_humidity;BME280_pressure;Samples;Min_cycle;Max_cycle;Signal;HPM_P1;HPM_P2
2022/01/21 00:00:12;;;;;;;8.50;3.40;;;0.90;1.00;;;;;;5033790;28;20191;-74
2022/01/21 00:02:38;;;;;;;12.90;4.00;;;0.80;1.00;;;;;;5033414;28;20204;-74
2022/01/21 00:05:05;;;;;;;6.60;3.20;;;0.70;1.00;;;;;;5032954;28;20200;-75
2022/01/21 00:07:30;;;;;;;9.40;3.50;;;0.60;1.00;;;;;;5033426;28;20188;-75
2022/01/21 00:09:56;;;;;;;11.60;3.87;;;0.60;1.00;;;;;;5033398;28;20184;-74
2022/01/21 00:12:22;;;;;;;8.00;3.73;;;0.50;1.00;;;;;;5033428;28;20172;-74
2022/01/21 00:14:48;;;;;;;13.57;3.63;;;0.50;1.00;;;;;;5032967;28;20261;-75
2022/01/21 00:17:15;;;;;;;11.20;3.53;;;0.50;1.00;;;;;;5033521;28;20278;-74
2022/01/21 00:19:44;;;;;;;7.87;3.47;;;0.50;1.00;;;;;;5033291;28;20315;-75
2022/01/21 00:30:24;;;;;;;8.33;3.63;;;0.50;1.00;;;;;;5033384;28;20178;-75
2022/01/21 00:32:50;;;;;;;8.83;3.27;;;0.50;1.00;;;;;;5033124;28;20720;-75
2022/01/21 00:35:17;;;;;;;8.67;3.10;;;0.50;1.00;;;;;;5032534;28;20294;-75
2022/01/21 00:37:44;;;;;;;14.63;3.57;;;0.50;1.00;;;;;;5033074;28;20180;-75
2022/01/21 00:40:14;;;;;;;10.67;3.50;;;0.50;1.00;;;;;;5032894;28;20274;-74
2022/01/21 00:45:12;;;;;;;7.77;3.43;;;0.40;1.00;;;;;;5032261;28;20188;-74
2022/01/21 00:47:37;;;;;;;7.50;3.27;;;0.30;1.00;;;;;;5032968;28;20222;-74
2022/01/21 00:50:04;;;;;;;10.20;3.33;;;0.20;1.00;;;;;;5032806;28;20491;-74
2022/01/21 00:52:30;;;;;;;12.20;3.30;;;0.60;1.00;;;;;;5032823;28;20558;-74
2022/01/21 00:54:55;;;;;;;10.50;3.30;;;0.30;1.00;;;;;;5032220;28;20729;-75
2022/01/21 00:57:21;;;;;;;12.33;3.90;;;0.40;1.00;;;;;;5032637;28;20183;-75
2022/01/21 00:59:47;;;;;;;10.60;3.40;;;0.40;1.00;;;;;;5032719;28;20211;-75
2022/01/21 01:02:12;;;;;;;10.73;3.63;;;0.50;1.00;;;;;;5032350;28;20211;-75
2022/01/21 01:04:38;;;;;;;8.33;3.53;;;0.50;1.00;;;;;;5031713;28;20168;-75
2022/01/21 01:07:04;;;;;;;8.00;3.07;;;0.60;1.00;;;;;;5032499;28;20183;-74
2022/01/21 01:09:29;;;;;;;10.93;3.43;;;0.60;1.00;;;;;;5032311;28;20880;-74
2022/01/21 01:19:57;;;;;;;7.30;2.97;;;0.60;1.00;;;;;;5032437;28;20179;-74
2022/01/21 01:22:32;;;;;;;9.63;3.30;;;0.60;1.00;;;;;;5032012;28;20720;-74
2022/01/21 01:27:42;;;;;;;10.60;3.67;;;0.60;1.00;;;;;;5032380;28;20245;-76
2022/01/21 01:30:12;;;;;;;6.77;3.37;;;0.60;1.00;;;;;;5032009;28;20625;-74
2022/01/21 01:32:38;;;;;;;13.20;3.50;;;0.70;1.00;;;;;;5031985;28;20175;-74
2022/01/21 01:35:05;;;;;;;11.67;3.20;;;0.70;1.00;;;;;;5031539;28;20250;-74
2022/01/21 01:38:09;;;;;;;9.00;3.00;;;0.80;1.00;;;;;;5031895;28;20261;-74
2022/01/21 01:50:53;;;;;;;7.03;2.93;;;0.80;1.00;;;;;;5032104;28;20170;-77
2022/01/21 01:53:47;;;;;;;12.83;3.30;;;0.80;1.00;;;;;;5031569;28;20198;-76
2022/01/21 01:56:14;;;;;;;6.13;2.70;;;0.80;1.00;;;;;;5025266;28;20204;-76
2022/01/21 01:58:41;;;;;;;10.73;3.43;;;0.70;1.00;;;;;;5031722;28;20183;-76
2022/01/21 02:01:08;;;;;;;7.47;3.23;;;0.80;1.00;;;;;;5031140;28;20263;-76
2022/01/21 02:03:34;;;;;;;8.67;3.37;;;0.80;1.00;;;;;;5031592;28;20663;-76
2022/01/21 02:06:00;;;;;;;11.40;4.47;;;0.80;1.00;;;;;;5030789;28;20286;-76
2022/01/21 02:08:27;;;;;;;8.90;3.60;;;0.80;1.00;;;;;;5031413;28;20199;-76
2022/01/21 02:10:52;;;;;;;8.67;3.60;;;0.80;1.00;;;;;;5029040;28;20183;-75
2022/01/21 02:13:24;;;;;;;11.30;3.33;;;0.70;1.00;;;;;;5031148;28;20172;-77
2022/01/21 02:16:10;;;;;;;7.73;3.47;;;0.80;1.00;;;;;;5030168;28;20641;-76
2022/01/21 02:21:38;;;;;;;9.97;3.67;;;1.30;1.00;;;;;;5011705;28;20247;-76
2022/01/21 02:24:22;;;;;;;11.63;3.77;;;0.70;1.00;;;;;;5011430;28;20202;-76
2022/01/21 02:26:50;;;;;;;13.03;4.20;;;0.70;1.00;;;;;;4993856;28;20609;-76
2022/01/21 02:29:27;;;;;;;10.67;3.90;;;0.70;1.00;;;;;;5025733;28;20183;-76
2022/01/21 02:31:53;;;;;;;10.63;4.40;;;0.60;1.00;;;;;;5031208;28;20241;-76
2022/01/21 02:34:19;;;;;;;9.27;4.17;;;0.70;1.00;;;;;;5031798;28;20178;-76
2022/01/21 02:36:44;;;;;;;13.73;4.53;;;0.70;1.00;;;;;;5034924;28;20200;-76
2022/01/21 02:39:10;;;;;;;8.13;3.90;;;0.90;1.00;;;;;;5033985;28;20191;-75
2022/01/21 02:41:36;;;;;;;11.93;4.30;;;0.80;1.00;;;;;;5035297;28;20219;-75
2022/01/21 02:44:01;;;;;;;17.37;4.03;;;0.80;1.00;;;;;;5035984;28;20196;-76
2022/01/21 02:46:27;;;;;;;12.33;4.53;;;0.80;1.00;;;;;;5031129;28;20242;-76
2022/01/21 02:48:53;;;;;;;13.30;4.07;;;0.70;1.00;;;;;;5031423;28;20176;-76
2022/01/21 02:51:20;;;;;;;11.50;3.93;;;0.70;1.00;;;;;;5030962;28;20195;-76
2022/01/21 02:56:13;;;;;;;10.10;3.93;;;0.70;1.00;;;;;;5030672;28;20676;-77
2022/01/21 02:58:39;;;;;;;10.87;4.40;;;0.80;1.00;;;;;;5031214;28;20183;-74
2022/01/21 03:01:06;;;;;;;10.70;3.97;;;0.70;1.00;;;;;;5031284;28;20180;-74
2022/01/21 03:03:32;;;;;;;10.40;4.27;;;0.60;1.00;;;;;;5031092;28;20594;-77
2022/01/21 03:05:58;;;;;;;7.97;3.70;;;0.50;1.00;;;;;;5030373;28;20199;-74
2022/01/21 03:08:23;;;;;;;11.13;4.13;;;0.50;1.00;;;;;;5030714;28;20634;-74
2022/01/21 03:10:49;;;;;;;11.40;3.70;;;0.50;1.00;;;;;;5030853;28;20218;-74
2022/01/21 03:13:15;;;;;;;12.47;3.90;;;0.60;1.00;;;;;;5030854;28;20195;-75
2022/01/21 03:15:41;;;;;;;10.73;3.90;;;0.60;1.00;;;;;;5030278;28;20283;-75
2022/01/21 03:18:07;;;;;;;9.70;3.63;;;0.50;1.00;;;;;;5030709;28;20637;-75
2022/01/21 03:20:32;;;;;;;9.90;3.23;;;0.50;1.00;;;;;;5031322;28;20263;-75
2022/01/21 03:23:00;;;;;;;10.27;3.50;;;0.60;1.00;;;;;;5030378;28;20680;-75
2022/01/21 03:25:26;;;;;;;11.37;3.50;;;0.60;1.00;;;;;;5030394;28;20425;-74
2022/01/21 03:27:51;;;;;;;9.03;2.83;;;0.60;1.00;;;;;;5032666;28;20191;-75
2022/01/21 03:30:17;;;;;;;10.13;3.40;;;0.60;1.00;;;;;;5034111;28;20202;-75
2022/01/21 03:32:42;;;;;;;9.43;3.83;;;0.70;1.00;;;;;;5034248;28;20687;-75
2022/01/21 03:35:08;;;;;;;12.00;3.83;;;0.70;1.00;;;;;;5033755;28;20792;-75
2022/01/21 03:37:34;;;;;;;8.03;3.80;;;0.70;1.00;;;;;;5034037;28;20176;-75
2022/01/21 03:39:59;;;;;;;13.57;3.87;;;0.70;1.00;;;;;;5034290;28;20759;-75
2022/01/21 03:42:25;;;;;;;12.03;3.73;;;0.70;1.00;;;;;;5034151;28;20223;-74
2022/01/21 03:44:50;;;;;;;11.47;3.77;;;0.70;1.00;;;;;;5033416;28;20175;-74
2022/01/21 03:47:16;;;;;;;14.73;4.30;;;0.70;1.00;;;;;;5034117;28;20208;-75
2022/01/21 03:49:52;;;;;;;11.77;4.00;;;0.70;1.00;;;;;;5034108;28;20182;-75
2022/01/21 03:52:17;;;;;;;12.77;3.83;;;0.60;1.00;;;;;;5033850;28;20670;-75
2022/01/21 03:54:43;;;;;;;10.60;3.53;;;0.70;1.00;;;;;;5033441;28;20283;-75
2022/01/21 03:57:08;;;;;;;9.50;3.87;;;0.60;1.00;;;;;;5033850;28;20203;-75
2022/01/21 03:59:34;;;;;;;13.40;4.53;;;0.60;1.00;;;;;;5033698;28;20255;-74
2022/01/21 04:02:00;;;;;;;9.77;3.70;;;0.60;1.00;;;;;;5033563;28;20211;-74
2022/01/21 04:04:26;;;;;;;15.50;4.37;;;0.60;1.00;;;;;;5033181;28;20194;-74
2022/01/21 04:06:51;;;;;;;15.97;4.37;;;0.70;1.00;;;;;;5033487;28;20764;-74
2022/01/21 04:09:17;;;;;;;10.33;4.60;;;0.60;1.00;;;;;;5033515;28;20188;-74
2022/01/21 04:11:42;;;;;;;12.07;4.13;;;0.60;1.00;;;;;;5033564;28;20218;-74
2022/01/21 04:14:08;;;;;;;16.67;3.80;;;0.50;1.00;;;;;;5033598;28;20555;-74
2022/01/21 04:16:34;;;;;;;11.77;4.03;;;0.50;1.00;;;;;;5032880;28;20265;-75
2022/01/21 04:18:59;;;;;;;7.73;4.20;;;0.50;1.00;;;;;;5033482;28;20176;-74
2022/01/21 04:21:25;;;;;;;11.70;4.10;;;0.40;1.00;;;;;;5033310;28;20199;-75
2022/01/21 04:23:50;;;;;;;14.43;5.40;;;0.40;1.00;;;;;;5135924;22;20305;-76
2022/01/21 04:26:16;;;;;;;13.97;4.30;;;0.30;1.00;;;;;;5052957;28;20670;-76
2022/01/21 04:28:41;;;;;;;10.37;4.13;;;0.30;1.00;;;;;;5053022;28;20632;-76
2022/01/21 04:31:07;;;;;;;12.70;4.73;;;0.30;1.00;;;;;;5053205;28;20183;-76
2022/01/21 04:33:33;;;;;;;12.30;4.47;;;0.40;1.00;;;;;;5053631;28;20175;-76
2022/01/21 04:35:58;;;;;;;16.27;4.83;;;0.40;1.00;;;;;;5052772;28;20202;-76
2022/01/21 04:38:25;;;;;;;13.07;4.17;;;0.40;1.00;;;;;;5052953;28;20671;-74
2022/01/21 04:41:01;;;;;;;9.53;4.30;;;0.40;1.00;;;;;;5035342;28;20190;-74
2022/01/21 04:48:55;;;;;;;14.57;5.00;;;0.30;1.00;;;;;;5053255;28;20225;-75
2022/01/21 04:51:27;;;;;;;13.53;5.13;;;0.40;1.00;;;;;;5052679;28;20190;-75
2022/01/21 04:53:53;;;;;;;10.13;4.63;;;0.40;1.00;;;;;;5052846;28;20179;-75
2022/01/21 04:56:20;;;;;;;14.17;4.60;;;0.40;1.00;;;;;;5052119;28;20679;-75
2022/01/21 04:58:46;;;;;;;12.33;5.17;;;0.40;1.00;;;;;;5052505;28;20657;-76
2022/01/21 05:01:12;;;;;;;10.77;4.77;;;0.40;1.00;;;;;;5052873;28;20179;-75
2022/01/21 05:03:40;;;;;;;8.80;4.60;;;0.30;1.00;;;;;;5052778;28;20232;-75
2022/01/21 05:06:06;;;;;;;11.83;4.60;;;0.30;1.00;;;;;;5051910;28;20226;-75
2022/01/21 05:08:46;;;;;;;8.97;4.40;;;0.40;1.00;;;;;;5052456;28;20202;-75
2022/01/21 05:11:13;;;;;;;12.80;4.93;;;0.40;1.00;;;;;;5052527;28;20562;-75
2022/01/21 05:13:43;;;;;;;14.10;4.73;;;0.30;1.00;;;;;;5052449;28;20172;-75
2022/01/21 05:17:00;;;;;;;15.73;5.73;;;0.40;1.00;;;;;;5052326;28;20210;-75
2022/01/21 05:19:01;;;;;;;11.50;4.97;;;0.30;1.00;;;;;;5043965;28;20240;-75
2022/01/21 05:21:26;;;;;;;15.07;5.00;;;0.30;1.00;;;;;;5052487;28;20562;-75
2022/01/21 05:23:52;;;;;;;19.47;6.00;;;0.40;1.00;;;;;;5052478;28;20681;-75
2022/01/21 05:26:18;;;;;;;11.37;4.97;;;0.30;1.00;;;;;;5051696;28;20195;-75
2022/01/21 05:28:44;;;;;;;14.00;5.43;;;0.30;1.00;;;;;;5052088;28;20785;-75
2022/01/21 05:31:09;;;;;;;10.60;5.27;;;0.30;1.00;;;;;;5052264;28;20254;-76
2022/01/21 05:33:35;;;;;;;13.20;4.97;;;0.30;1.00;;;;;;5052091;28;20178;-76
2022/01/21 05:36:00;;;;;;;11.63;5.17;;;0.30;1.00;;;;;;5051463;28;20195;-75
2022/01/21 05:38:26;;;;;;;11.97;4.90;;;0.30;1.00;;;;;;5051835;28;20175;-76
2022/01/21 05:40:52;;;;;;;12.63;4.70;;;0.30;1.00;;;;;;5051916;28;20655;-75
2022/01/21 05:43:17;;;;;;;16.53;4.53;;;0.30;1.00;;;;;;5033979;28;20302;-76
2022/01/21 05:48:27;;;;;;;14.83;5.17;;;0.30;1.00;;;;;;5051860;28;20222;-75
2022/01/21 05:50:52;;;;;;;12.83;4.53;;;0.30;1.00;;;;;;5050780;28;20195;-76
2022/01/21 05:53:18;;;;;;;13.47;5.83;;;0.40;1.00;;;;;;5051869;28;20624;-76
2022/01/21 05:55:44;;;;;;;14.60;5.50;;;0.40;1.00;;;;;;5050973;28;20644;-75
2022/01/21 05:58:10;;;;;;;12.03;5.50;;;0.30;1.00;;;;;;5051761;28;20175;-75
2022/01/21 06:00:37;;;;;;;12.13;5.27;;;0.40;1.00;;;;;;5051500;28;20182;-75
2022/01/21 06:03:06;;;;;;;9.77;5.43;;;0.40;1.00;;;;;;5051468;28;20317;-75
2022/01/21 06:05:33;;;;;;;11.23;5.30;;;0.40;1.00;;;;;;5051172;28;20202;-75
2022/01/21 06:08:00;;;;;;;14.33;5.17;;;0.40;1.00;;;;;;5052147;28;20178;-75
2022/01/21 06:10:26;;;;;;;9.83;4.90;;;0.40;1.00;;;;;;5052083;28;20171;-74
2022/01/21 06:12:52;;;;;;;10.97;5.17;;;0.40;1.00;;;;;;5051528;28;20207;-74
2022/01/21 06:15:17;;;;;;;17.13;6.90;;;0.30;1.00;;;;;;5050827;28;20191;-74
2022/01/21 06:17:43;;;;;;;14.47;5.57;;;0.30;1.00;;;;;;5033508;28;20269;-75
2022/01/21 06:20:09;;;;;;;14.30;5.47;;;0.40;1.00;;;;;;5051636;28;20171;-74
2022/01/21 06:22:35;;;;;;;13.03;5.53;;;0.40;1.00;;;;;;5051424;28;20256;-73
2022/01/21 06:25:00;;;;;;;11.47;5.23;;;0.30;1.00;;;;;;5050314;28;20763;-75
2022/01/21 06:27:27;;;;;;;12.93;5.87;;;0.40;1.00;;;;;;5051289;28;20182;-74
2022/01/21 06:29:54;;;;;;;11.20;5.70;;;0.40;1.00;;;;;;5050818;28;20187;-75
2022/01/21 06:32:20;;;;;;;12.10;5.60;;;0.40;1.00;;;;;;5050645;28;20546;-75
2022/01/21 06:34:45;;;;;;;18.87;6.53;;;0.30;1.00;;;;;;5049754;28;20254;-75
2022/01/21 06:37:11;;;;;;;11.20;5.20;;;0.30;1.00;;;;;;5050151;28;20202;-75
2022/01/21 06:39:36;;;;;;;9.17;5.00;;;0.40;1.00;;;;;;5050318;28;20191;-76
2022/01/21 06:42:02;;;;;;;12.20;5.20;;;0.20;1.00;;;;;;5051485;28;20238;-75
2022/01/21 06:44:28;;;;;;;13.20;4.70;;;0.30;1.00;;;;;;5050294;28;20637;-75
2022/01/21 06:46:53;;;;;;;12.07;5.03;;;0.30;6.50;;;;;;5051147;28;20198;-75
2022/01/21 06:49:19;;;;;;;10.20;4.90;;;0.20;1.00;;;;;;5050897;28;20171;-75
2022/01/21 06:51:44;;;;;;;16.20;5.50;;;0.30;1.00;;;;;;5051123;28;20204;-76
2022/01/21 06:54:10;;;;;;;8.63;4.97;;;0.20;8.10;;;;;;5050999;28;20172;-75
2022/01/21 06:56:36;;;;;;;9.67;4.17;;;0.20;20.60;;;;;;5050076;28;20214;-75
2022/01/21 06:59:02;;;;;;;13.03;5.07;;;0.30;1.00;;;;;;5050558;28;20167;-75
2022/01/21 07:01:28;;;;;;;13.27;6.80;;;0.30;1.00;;;;;;5051054;28;20175;-73
2022/01/21 07:03:54;;;;;;;15.97;5.60;;;0.30;1.00;;;;;;5054450;28;20682;-74
2022/01/21 07:06:20;;;;;;;15.13;6.23;;;0.40;1.00;;;;;;5054142;28;20190;-73
2022/01/21 07:08:45;;;;;;;12.57;5.40;;;0.60;86.30;;;;;;5054433;28;20524;-75
2022/01/21 07:11:11;;;;;;;14.63;5.70;;;0.80;1.00;;;;;;5054616;28;20175;-74
2022/01/21 07:13:37;;;;;;;14.97;6.20;;;0.60;1.00;;;;;;5054481;28;20179;-74
2022/01/21 07:16:02;;;;;;;14.93;6.23;;;0.50;1.00;;;;;;5053917;28;20834;-73
2022/01/21 07:18:28;;;;;;;13.53;5.93;;;0.30;1.00;;;;;;5054310;28;20262;-74
2022/01/21 07:20:54;;;;;;;17.53;7.03;;;0.70;1.00;;;;;;5054233;28;20628;-74
2022/01/21 07:23:19;;;;;;;13.30;7.13;;;0.90;1.00;;;;;;5053406;28;20215;-74
2022/01/21 07:25:45;;;;;;;14.10;5.90;;;0.70;1.00;;;;;;5053092;28;20264;-75
2022/01/21 07:28:10;;;;;;;14.93;6.20;;;0.80;1.00;;;;;;5034152;28;20219;-75
2022/01/21 07:30:36;;;;;;;12.93;6.20;;;0.50;1.00;;;;;;5034622;28;20258;-75
2022/01/21 07:33:01;;;;;;;10.60;5.60;;;1.00;1.00;;;;;;5053495;28;20221;-75
2022/01/21 07:35:27;;;;;;;15.73;6.40;;;1.10;1.00;;;;;;5053530;28;20565;-76
2022/01/21 07:37:52;;;;;;;13.90;6.43;;;1.10;1.00;;;;;;5053860;28;20187;-75
2022/01/21 07:40:18;;;;;;;14.43;5.73;;;1.30;1.00;;;;;;5053994;28;20217;-75
2022/01/21 07:42:43;;;;;;;15.33;5.70;;;1.50;1.00;;;;;;5053764;28;20207;-74
2022/01/21 07:45:09;;;;;;;12.33;5.13;;;1.60;1.00;;;;;;5053253;28;20302;-74
2022/01/21 07:47:35;;;;;;;17.83;6.63;;;1.50;1.00;;;;;;5053889;28;20193;-74
2022/01/21 07:50:01;;;;;;;15.13;6.03;;;1.80;1.00;;;;;;5053761;28;20175;-74
2022/01/21 07:52:26;;;;;;;18.40;5.80;;;1.60;1.00;;;;;;5054043;28;20254;-74
2022/01/21 07:54:52;;;;;;;12.43;5.37;;;1.70;1.00;;;;;;5053253;28;20578;-74
2022/01/21 07:57:17;;;;;;;13.93;6.07;;;2.00;1.00;;;;;;5053687;28;20614;-74
2022/01/21 07:59:43;;;;;;;16.50;5.83;;;2.10;1.00;;;;;;5053591;28;20178;-74
2022/01/21 08:02:09;;;;;;;10.50;5.70;;;2.00;1.00;;;;;;5053409;28;20713;-74
2022/01/21 08:04:35;;;;;;;14.73;6.20;;;2.10;99.90;;;;;;5053188;28;20175;-73
2022/01/21 08:07:01;;;;;;;12.33;5.93;;;1.90;99.90;;;;;;5053615;28;20190;-76
2022/01/21 08:09:26;;;;;;;11.93;4.93;;;1.80;1.00;;;;;;5052995;28;20191;-74
2022/01/21 08:11:54;;;;;;;17.77;5.80;;;1.70;99.90;;;;;;5053784;28;20557;-74
2022/01/21 08:14:21;;;;;;;14.90;5.83;;;1.80;1.00;;;;;;5052853;28;20203;-74
2022/01/21 08:16:46;;;;;;;14.97;5.47;;;3.60;1.00;;;;;;5052818;28;20194;-75
2022/01/21 08:19:13;;;;;;;12.93;5.50;;;4.20;1.00;;;;;;5053276;28;20221;-75
2022/01/21 08:21:39;;;;;;;10.83;4.53;;;3.30;99.90;;;;;;5053086;28;20290;-75
2022/01/21 08:24:06;;;;;;;12.30;5.07;;;2.60;79.50;;;;;;5053163;28;20274;-74
2022/01/21 08:26:32;;;;;;;13.60;5.33;;;2.20;1.00;;;;;;5052743;28;20305;-73
2022/01/21 08:28:58;;;;;;;12.63;5.47;;;1.80;99.90;;;;;;5052705;28;20559;-76
2022/01/21 08:31:24;;;;;;;13.03;5.67;;;1.70;99.90;;;;;;5052842;28;20254;-75
2022/01/21 08:33:51;;;;;;;12.60;5.37;;;1.80;99.90;;;;;;5053182;28;20198;-75
2022/01/21 08:36:21;;;;;;;16.23;5.90;;;2.20;1.00;;;;;;5052601;28;20191;-74
2022/01/21 08:38:47;;;;;;;10.40;5.13;;;4.60;1.00;;;;;;5053094;28;20172;-74
2022/01/21 08:41:12;;;;;;;13.80;5.40;;;6.20;99.90;;;;;;5052949;28;20178;-74
2022/01/21 08:43:38;;;;;;;9.73;4.93;;;7.00;31.80;;;;;;5052673;28;20210;-75
2022/01/21 08:46:04;;;;;;;10.53;4.63;;;7.50;1.00;;;;;;5051321;28;20608;-76
2022/01/21 08:48:29;;;;;;;11.03;4.07;;;7.80;1.00;;;;;;5052463;28;20225;-75
2022/01/21 08:50:57;;;;;;;13.47;4.53;;;8.00;1.00;;;;;;5052808;28;20248;-75
2022/01/21 08:53:38;;;;;;;10.33;4.50;;;6.70;1.00;;;;;;5052741;28;20241;-75
2022/01/21 08:56:16;;;;;;;9.57;4.10;;;4.90;99.90;;;;;;5052077;28;20723;-76
2022/01/21 08:58:43;;;;;;;10.93;5.07;;;3.80;1.00;;;;;;5052638;28;20282;-74
2022/01/21 09:01:09;;;;;;;8.97;4.63;;;3.50;1.00;;;;;;5052714;28;20190;-75
2022/01/21 09:03:36;;;;;;;15.00;5.20;;;3.10;99.90;;;;;;5052540;28;20211;-75
2022/01/21 09:06:02;;;;;;;9.73;4.93;;;2.90;58.50;;;;;;5051790;28;20687;-76
2022/01/21 09:08:30;;;;;;;12.73;5.40;;;2.50;99.90;;;;;;5052560;28;20168;-75
2022/01/21 09:10:57;;;;;;;10.53;5.80;;;2.60;99.90;;;;;;5052144;28;20179;-75
2022/01/21 09:13:26;;;;;;;14.57;6.23;;;2.20;1.00;;;;;;5052478;28;20171;-75
2022/01/21 09:15:54;;;;;;;10.87;5.93;;;2.40;99.90;;;;;;5051401;28;20707;-74
2022/01/21 09:18:20;;;;;;;13.17;5.87;;;2.40;1.00;;;;;;5052108;28;20682;-74
2022/01/21 09:20:46;;;;;;;10.77;5.70;;;2.30;1.00;;;;;;5052183;28;20175;-74
2022/01/21 09:23:12;;;;;;;11.33;5.47;;;2.50;1.00;;;;;;5052855;28;20210;-74
2022/01/21 09:25:38;;;;;;;13.17;5.97;;;2.50;1.00;;;;;;5052566;28;20195;-74
2022/01/21 09:28:04;;;;;;;15.90;6.57;;;2.40;1.00;;;;;;5053286;28;20237;-75
2022/01/21 09:30:30;;;;;;;16.60;5.47;;;2.50;1.00;;;;;;5053546;28;20236;-75
2022/01/21 09:32:57;;;;;;;15.73;7.47;;;2.50;1.00;;;;;;5054004;28;20201;-73
2022/01/21 09:35:23;;;;;;;9.57;5.80;;;2.50;99.90;;;;;;5051729;28;20194;-74
2022/01/21 09:37:48;;;;;;;15.10;6.70;;;2.40;1.00;;;;;;5051995;28;20175;-74
2022/01/21 09:40:14;;;;;;;13.47;5.70;;;2.40;1.00;;;;;;5052427;28;20221;-74
2022/01/21 09:42:40;;;;;;;15.97;5.83;;;2.50;1.00;;;;;;5051669;28;20210;-74
2022/01/21 09:45:09;;;;;;;11.03;6.63;;;2.70;1.00;;;;;;5051112;28;20241;-74
2022/01/21 09:47:45;;;;;;;14.53;5.93;;;2.60;99.90;;;;;;5051544;28;20203;-75
2022/01/21 09:50:19;;;;;;;13.07;6.33;;;2.80;99.90;;;;;;5051575;28;20186;-73
2022/01/21 09:52:50;;;;;;;13.70;6.27;;;3.00;1.00;;;;;;5051830;28;20182;-73
2022/01/21 09:55:21;;;;;;;8.93;5.13;;;3.00;1.00;;;;;;5050754;28;20219;-74
2022/01/21 09:57:49;;;;;;;10.87;5.87;;;2.90;1.00;;;;;;5051670;28;20262;-73
2022/01/21 10:00:16;;;;;;;12.60;5.87;;;3.30;1.00;;;;;;5051519;28;20647;-75
2022/01/21 10:02:43;;;;;;;14.60;5.53;;;3.20;1.00;;;;;;5050701;28;20346;-73
2022/01/21 10:05:09;;;;;;;12.60;5.87;;;3.40;1.00;;;;;;5050173;28;20565;-73
2022/01/21 10:07:38;;;;;;;15.07;6.00;;;3.40;1.00;;;;;;5050926;28;20254;-74
2022/01/21 10:10:08;;;;;;;14.53;5.10;;;3.50;99.90;;;;;;5048640;28;20174;-73
2022/01/21 10:12:39;;;;;;;14.10;5.20;;;3.40;1.00;;;;;;5050836;28;20632;-73
2022/01/21 10:15:07;;;;;;;11.73;4.77;;;3.40;99.90;;;;;;5050593;28;20199;-74
2022/01/21 10:17:33;;;;;;;12.00;6.43;;;3.50;99.90;;;;;;5051202;28;20597;-73
2022/01/21 10:20:21;;;;;;;14.77;6.30;;;3.70;81.20;;;;;;5051332;28;20206;-73
2022/01/21 10:23:03;;;;;;;10.80;5.30;;;4.20;99.90;;;;;;5051220;28;20289;-73
2022/01/21 10:25:30;;;;;;;14.97;5.20;;;3.60;1.00;;;;;;5050642;28;20206;-73
2022/01/21 10:28:19;;;;;;;13.83;5.30;;;3.40;1.00;;;;;;5051187;28;20555;-73
2022/01/21 10:30:46;;;;;;;12.37;5.73;;;3.20;99.90;;;;;;5051473;28;20183;-73
2022/01/21 10:33:20;;;;;;;13.33;5.53;;;3.10;1.00;;;;;;5051448;28;20586;-74
2022/01/21 10:35:49;;;;;;;10.53;4.90;;;3.10;99.90;;;;;;5050604;28;20293;-74
2022/01/21 10:38:27;;;;;;;10.80;5.03;;;3.00;99.90;;;;;;5093311;22;20241;-77
2022/01/21 10:41:05;;;;;;;13.10;5.27;;;3.00;1.00;;;;;;5056074;28;20199;-76
2022/01/21 10:43:31;;;;;;;9.77;4.90;;;2.80;92.20;;;;;;5056450;28;20207;-77
2022/01/21 10:45:59;;;;;;;9.60;5.40;;;2.60;1.00;;;;;;5055384;28;20222;-76
2022/01/21 10:48:28;;;;;;;19.63;5.93;;;2.60;1.00;;;;;;5056831;28;20183;-76
2022/01/21 10:51:16;;;;;;;13.10;5.57;;;3.00;99.90;;;;;;5055947;28;20632;-76
2022/01/21 10:53:43;;;;;;;17.80;6.20;;;3.00;1.00;;;;;;5055783;28;20167;-75
2022/01/21 10:56:11;;;;;;;11.37;5.10;;;3.20;99.90;;;;;;5054637;28;20694;-75
2022/01/21 10:58:40;;;;;;;15.37;5.33;;;3.40;1.00;;;;;;5055257;28;20203;-77
2022/01/21 11:01:11;;;;;;;10.33;5.57;;;3.60;99.90;;;;;;5055116;28;20182;-74
2022/01/21 11:03:59;;;;;;;12.50;5.70;;;3.60;81.10;;;;;;5054896;28;20206;-77
2022/01/21 11:06:29;;;;;;;13.93;6.23;;;3.60;99.90;;;;;;5037480;28;20225;-76
2022/01/21 11:09:35;;;;;;;12.63;5.90;;;3.60;1.00;;;;;;5054877;28;20190;-77
2022/01/21 11:12:14;;;;;;;15.00;5.60;;;3.60;1.00;;;;;;4973784;28;20690;-77
2022/01/21 11:14:59;;;;;;;11.43;5.80;;;3.50;1.00;;;;;;4973015;28;20573;-76
2022/01/21 11:17:25;;;;;;;16.00;6.30;;;3.10;99.90;;;;;;5029951;28;20191;-77
2022/01/21 11:20:16;;;;;;;12.50;5.83;;;3.10;1.00;;;;;;5054623;28;20198;-77
2022/01/21 11:22:56;;;;;;;14.30;5.87;;;3.10;1.00;;;;;;5054672;28;20214;-76
2022/01/21 11:25:48;;;;;;;12.07;5.60;;;3.00;32.60;;;;;;5053715;28;20222;-76
2022/01/21 11:28:15;;;;;;;9.07;5.27;;;3.00;99.90;;;;;;5054264;28;20171;-76
2022/01/21 11:30:41;;;;;;;15.07;5.03;;;3.10;1.00;;;;;;5054720;28;20179;-77
2022/01/21 11:33:07;;;;;;;11.23;5.07;;;3.20;23.50;;;;;;5054562;28;20175;-76
2022/01/21 11:35:33;;;;;;;13.30;5.13;;;3.20;1.00;;;;;;5053671;28;20199;-76
2022/01/21 11:38:04;;;;;;;13.80;4.63;;;3.10;99.90;;;;;;5054182;28;20317;-77
2022/01/21 11:40:30;;;;;;;13.83;5.03;;;3.20;1.00;;;;;;5054289;28;20202;-77
2022/01/21 11:42:57;;;;;;;13.20;5.20;;;3.20;1.00;;;;;;5054077;28;20616;-77
2022/01/21 11:45:43;;;;;;;11.63;4.63;;;3.20;1.00;;;;;;5053290;28;20274;-77
2022/01/21 11:50:40;;;;;;;12.73;4.60;;;3.10;1.00;;;;;;5054265;28;20261;-77
2022/01/21 11:53:06;;;;;;;13.20;4.80;;;3.20;1.00;;;;;;5054020;28;20317;-77
2022/01/21 11:55:38;;;;;;;13.80;4.67;;;3.10;1.00;;;;;;5053542;28;20710;-77
2022/01/21 11:58:23;;;;;;;10.87;4.90;;;3.10;99.90;;;;;;5054388;28;20184;-77
2022/01/21 12:00:51;;;;;;;15.17;5.20;;;3.30;1.00;;;;;;5054393;28;20658;-77
2022/01/21 12:03:21;;;;;;;10.13;4.40;;;3.50;99.60;;;;;;5054597;28;20214;-76
2022/01/21 12:05:47;;;;;;;9.53;4.07;;;3.70;1.00;;;;;;5053163;28;20687;-76
2022/01/21 12:08:12;;;;;;;9.23;3.83;;;3.80;1.00;;;;;;5053854;28;20306;-76
2022/01/21 12:10:43;;;;;;;7.03;3.40;;;3.60;1.00;;;;;;5053814;28;20515;-76
2022/01/21 12:13:19;;;;;;;11.33;4.03;;;3.60;1.00;;;;;;5053856;28;20210;-76
2022/01/21 12:18:38;;;;;;;10.50;4.20;;;3.50;1.00;;;;;;5053605;28;20167;-76
2022/01/21 12:21:32;;;;;;;10.17;4.30;;;3.60;99.90;;;;;;5053764;28;20183;-76
2022/01/21 12:23:59;;;;;;;12.97;4.70;;;3.50;91.10;;;;;;5053468;28;20191;-76
2022/01/21 12:26:26;;;;;;;13.43;4.83;;;3.40;66.00;;;;;;5052831;28;20265;-76
2022/01/21 12:28:58;;;;;;;10.37;3.70;;;3.40;1.00;;;;;;5053426;28;20179;-76
2022/01/21 12:31:51;;;;;;;10.07;4.07;;;3.40;1.00;;;;;;5053542;28;20167;-76
2022/01/21 12:34:17;;;;;;;8.67;4.37;;;3.30;1.00;;;;;;5053049;28;20214;-76
2022/01/21 12:36:57;;;;;;;8.13;3.30;;;3.30;1.00;;;;;;5052843;28;20668;-75
2022/01/21 12:39:40;;;;;;;6.80;3.40;;;3.20;1.00;;;;;;5052983;28;20202;-76
2022/01/21 12:42:20;;;;;;;11.03;3.80;;;3.10;1.00;;;;;;5053025;28;20686;-76
2022/01/21 12:45:09;;;;;;;15.20;4.43;;;3.10;55.20;;;;;;5053802;28;20194;-76
2022/01/21 12:47:41;;;;;;;10.70;3.70;;;2.90;1.00;;;;;;5039791;28;20182;-77
2022/01/21 12:50:16;;;;;;;14.23;3.90;;;3.20;1.00;;;;;;5054720;28;20175;-77
2022/01/21 12:52:56;;;;;;;8.17;3.53;;;3.10;99.90;;;;;;5052698;28;20179;-75
2022/01/21 12:58:18;;;;;;;9.83;3.40;;;2.90;1.00;;;;;;5053149;28;20244;-76
2022/01/21 13:00:44;;;;;;;10.13;3.70;;;3.00;99.90;;;;;;5052509;28;20174;-76
2022/01/21 13:03:16;;;;;;;8.33;3.63;;;2.90;99.90;;;;;;5052381;28;20672;-75
2022/01/21 13:06:01;;;;;;;12.43;3.93;;;3.10;1.00;;;;;;5052096;28;20191;-75
2022/01/21 13:08:43;;;;;;;8.60;3.50;;;3.10;99.90;;;;;;5052469;28;20187;-76
2022/01/21 13:11:19;;;;;;;11.53;3.70;;;3.30;1.00;;;;;;5052650;28;20175;-75
2022/01/21 13:13:51;;;;;;;12.87;3.63;;;3.10;99.90;;;;;;5052643;28;20167;-76
2022/01/21 13:16:34;;;;;;;6.90;3.50;;;2.90;99.90;;;;;;5052205;28;20230;-76
2022/01/21 13:19:05;;;;;;;7.63;3.70;;;2.80;1.00;;;;;;5051806;28;20187;-76
2022/01/21 13:21:35;;;;;;;13.87;3.47;;;2.60;1.00;;;;;;5051592;28;20198;-76
2022/01/21 13:24:03;;;;;;;11.60;4.30;;;2.60;1.00;;;;;;5051967;28;20189;-76
2022/01/21 13:26:37;;;;;;;13.43;3.77;;;2.70;1.00;;;;;;5033575;28;20195;-75
2022/01/21 13:29:11;;;;;;;8.90;3.67;;;2.60;1.00;;;;;;5051743;28;20191;-75
2022/01/21 13:31:57;;;;;;;8.17;3.17;;;2.60;1.00;;;;;;5049102;28;20183;-76
2022/01/21 13:34:39;;;;;;;11.40;3.53;;;2.60;1.00;;;;;;5049559;28;20190;-75
2022/01/21 13:37:10;;;;;;;9.83;3.30;;;2.80;99.90;;;;;;5050348;28;20179;-75
2022/01/21 13:39:42;;;;;;;12.37;3.67;;;2.90;1.00;;;;;;5049561;28;20187;-75
2022/01/21 13:42:11;;;;;;;9.43;3.27;;;3.00;1.00;;;;;;5051618;28;20679;-75
2022/01/21 13:44:49;;;;;;;11.20;3.50;;;2.90;1.00;;;;;;5048378;28;20309;-77
2022/01/21 13:47:36;;;;;;;8.67;3.83;;;2.70;99.90;;;;;;5051418;28;20182;-75
2022/01/21 13:50:23;;;;;;;9.23;3.20;;;2.60;1.00;;;;;;5049504;28;20206;-75
2022/01/21 13:53:03;;;;;;;9.73;3.40;;;2.60;1.00;;;;;;5050675;28;20171;-77
2022/01/21 13:55:43;;;;;;;12.13;3.83;;;2.60;1.00;;;;;;5049946;28;20202;-77
2022/01/21 13:58:16;;;;;;;11.27;3.67;;;2.60;1.00;;;;;;5050321;28;20312;-77
2022/01/21 14:00:51;;;;;;;9.70;3.67;;;2.70;1.00;;;;;;5047832;28;20206;-74